<?xml version="1.0" encoding="UTF-8" standalone="no" ?>
<gpx xmlns="http://www.topografix.com/GPX/1/1" xmlns:xsi="http://www.w3.org/2001/XMLSchema-instance" xsi:schemaLocation="http://www.topografix.com/GPX/1/1 http://www.topografix.com/GPX/1/1/gpx.xsd" version="1.1" creator="VisuGPX - https://www.visugpx.com">
  <metadata>
    <name>Haute Savoie Pic Boré</name>
  </metadata>
  <trk>
    <name><![CDATA[Randonnée]]></name>
    <extensions>
      <line xmlns="http://www.topografix.com/GPX/gpx_style/0/2">
        <color>00FF00</color>
        <width>4</width>
      </line>
    </extensions>
    <trkseg>
      <trkpt lat="46.3594" lon="6.71999">
        <ele>1457.206551</ele>
        <time>2022-08-01T14:12:43.308Z</time>
      </trkpt>
      <trkpt lat="46.35948" lon="6.71982">
        <ele>1457.206551</ele>
        <time>2022-08-01T14:14:26.856Z</time>
      </trkpt>
      <trkpt lat="46.35952" lon="6.71969">
        <ele>1457.206551</ele>
        <time>2022-08-01T14:14:34.859Z</time>
      </trkpt>
      <trkpt lat="46.35953" lon="6.71955">
        <ele>1457.206551</ele>
        <time>2022-08-01T14:14:44.856Z</time>
      </trkpt>
      <trkpt lat="46.35958" lon="6.71944">
        <ele>1457.206551</ele>
        <time>2022-08-01T14:14:59.873Z</time>
      </trkpt>
      <trkpt lat="46.35964" lon="6.71927">
        <ele>1457.206551</ele>
        <time>2022-08-01T14:15:40.854Z</time>
      </trkpt>
      <trkpt lat="46.35972" lon="6.71922">
        <ele>1457.206551</ele>
        <time>2022-08-01T14:15:49.847Z</time>
      </trkpt>
      <trkpt lat="46.35988" lon="6.71905">
        <ele>1457.206551</ele>
        <time>2022-08-01T14:16:27.852Z</time>
      </trkpt>
      <trkpt lat="46.35986" lon="6.71891">
        <ele>1456.98757</ele>
        <time>2022-08-01T14:16:35.848Z</time>
      </trkpt>
      <trkpt lat="46.35985" lon="6.71877">
        <ele>1456.430174</ele>
        <time>2022-08-01T14:16:44.867Z</time>
      </trkpt>
      <trkpt lat="46.35982" lon="6.71865">
        <ele>1455.887398</ele>
        <time>2022-08-01T14:16:52.867Z</time>
      </trkpt>
      <trkpt lat="46.35975" lon="6.71854">
        <ele>1455.307068</ele>
        <time>2022-08-01T14:16:58.878Z</time>
      </trkpt>
      <trkpt lat="46.35967" lon="6.71847">
        <ele>1454.777893</ele>
        <time>2022-08-01T14:17:06.869Z</time>
      </trkpt>
      <trkpt lat="46.35958" lon="6.71843">
        <ele>1454.20722</ele>
        <time>2022-08-01T14:17:15.866Z</time>
      </trkpt>
      <trkpt lat="46.3595" lon="6.71834">
        <ele>1453.64638</ele>
        <time>2022-08-01T14:17:24.854Z</time>
      </trkpt>
      <trkpt lat="46.35944" lon="6.71822">
        <ele>1453.047661</ele>
        <time>2022-08-01T14:17:31.872Z</time>
      </trkpt>
      <trkpt lat="46.35939" lon="6.7181">
        <ele>1452.485241</ele>
        <time>2022-08-01T14:17:39.865Z</time>
      </trkpt>
      <trkpt lat="46.35933" lon="6.71799">
        <ele>1451.895751</ele>
        <time>2022-08-01T14:17:49.866Z</time>
      </trkpt>
      <trkpt lat="46.35925" lon="6.7179">
        <ele>1451.337646</ele>
        <time>2022-08-01T14:17:57.873Z</time>
      </trkpt>
      <trkpt lat="46.35919" lon="6.71779">
        <ele>1450.778075</ele>
        <time>2022-08-01T14:18:05.877Z</time>
      </trkpt>
      <trkpt lat="46.35913" lon="6.71768">
        <ele>1450.206836</ele>
        <time>2022-08-01T14:18:19.864Z</time>
      </trkpt>
      <trkpt lat="46.35907" lon="6.71758">
        <ele>1449.669377</ele>
        <time>2022-08-01T14:18:26.889Z</time>
      </trkpt>
      <trkpt lat="46.359" lon="6.71749">
        <ele>1449.144955</ele>
        <time>2022-08-01T14:18:33.871Z</time>
      </trkpt>
      <trkpt lat="46.35892" lon="6.71743">
        <ele>1448.604237</ele>
        <time>2022-08-01T14:18:42.866Z</time>
      </trkpt>
      <trkpt lat="46.35883" lon="6.71738">
        <ele>1448.077425</ele>
        <time>2022-08-01T14:18:51.870Z</time>
      </trkpt>
      <trkpt lat="46.35874" lon="6.71741">
        <ele>1447.506218</ele>
        <time>2022-08-01T14:18:59.863Z</time>
      </trkpt>
      <trkpt lat="46.35864" lon="6.7174">
        <ele>1446.949627</ele>
        <time>2022-08-01T14:19:07.869Z</time>
      </trkpt>
      <trkpt lat="46.35855" lon="6.71736">
        <ele>1446.217352</ele>
        <time>2022-08-01T14:19:15.863Z</time>
      </trkpt>
      <trkpt lat="46.35848" lon="6.71726">
        <ele>1445.273879</ele>
        <time>2022-08-01T14:19:24.859Z</time>
      </trkpt>
      <trkpt lat="46.35842" lon="6.71715">
        <ele>1444.403777</ele>
        <time>2022-08-01T14:19:31.865Z</time>
      </trkpt>
      <trkpt lat="46.35836" lon="6.71704">
        <ele>1443.482065</ele>
        <time>2022-08-01T14:19:38.863Z</time>
      </trkpt>
      <trkpt lat="46.35831" lon="6.71693">
        <ele>1442.638685</ele>
        <time>2022-08-01T14:19:45.856Z</time>
      </trkpt>
      <trkpt lat="46.35825" lon="6.71683">
        <ele>1441.803645</ele>
        <time>2022-08-01T14:19:51.870Z</time>
      </trkpt>
      <trkpt lat="46.3582" lon="6.71671">
        <ele>1440.933924</ele>
        <time>2022-08-01T14:19:58.870Z</time>
      </trkpt>
      <trkpt lat="46.35815" lon="6.71659">
        <ele>1440.011337</ele>
        <time>2022-08-01T14:20:08.874Z</time>
      </trkpt>
      <trkpt lat="46.3581" lon="6.71647">
        <ele>1439.133461</ele>
        <time>2022-08-01T14:20:16.855Z</time>
      </trkpt>
      <trkpt lat="46.35809" lon="6.71632">
        <ele>1438.201619</ele>
        <time>2022-08-01T14:20:28.872Z</time>
      </trkpt>
      <trkpt lat="46.35805" lon="6.7162">
        <ele>1437.312991</ele>
        <time>2022-08-01T14:20:34.865Z</time>
      </trkpt>
      <trkpt lat="46.35798" lon="6.71611">
        <ele>1436.486347</ele>
        <time>2022-08-01T14:20:41.875Z</time>
      </trkpt>
      <trkpt lat="46.35792" lon="6.71601">
        <ele>1435.635218</ele>
        <time>2022-08-01T14:20:50.864Z</time>
      </trkpt>
      <trkpt lat="46.35783" lon="6.71595">
        <ele>1434.729889</ele>
        <time>2022-08-01T14:20:58.864Z</time>
      </trkpt>
      <trkpt lat="46.35774" lon="6.71592">
        <ele>1433.901926</ele>
        <time>2022-08-01T14:21:05.857Z</time>
      </trkpt>
      <trkpt lat="46.35765" lon="6.71588">
        <ele>1432.957952</ele>
        <time>2022-08-01T14:21:13.874Z</time>
      </trkpt>
      <trkpt lat="46.35757" lon="6.71579">
        <ele>1432.08251</ele>
        <time>2022-08-01T14:21:26.884Z</time>
      </trkpt>
      <trkpt lat="46.35744" lon="6.71576">
        <ele>1430.83251</ele>
        <time>2022-08-01T14:21:59.876Z</time>
      </trkpt>
      <trkpt lat="46.35735" lon="6.71572">
        <ele>1429.826624</ele>
        <time>2022-08-01T14:22:07.874Z</time>
      </trkpt>
      <trkpt lat="46.35727" lon="6.71564">
        <ele>1428.311352</ele>
        <time>2022-08-01T14:22:14.860Z</time>
      </trkpt>
      <trkpt lat="46.35721" lon="6.71554">
        <ele>1426.835331</ele>
        <time>2022-08-01T14:22:22.879Z</time>
      </trkpt>
      <trkpt lat="46.35715" lon="6.71544">
        <ele>1425.430133</ele>
        <time>2022-08-01T14:22:28.870Z</time>
      </trkpt>
      <trkpt lat="46.35708" lon="6.71535">
        <ele>1423.928039</ele>
        <time>2022-08-01T14:22:36.868Z</time>
      </trkpt>
      <trkpt lat="46.357" lon="6.71527">
        <ele>1422.432367</ele>
        <time>2022-08-01T14:22:52.881Z</time>
      </trkpt>
      <trkpt lat="46.35691" lon="6.71522">
        <ele>1420.930387</ele>
        <time>2022-08-01T14:23:02.876Z</time>
      </trkpt>
      <trkpt lat="46.35683" lon="6.71512">
        <ele>1419.283734</ele>
        <time>2022-08-01T14:23:11.869Z</time>
      </trkpt>
      <trkpt lat="46.35677" lon="6.71502">
        <ele>1417.780814</ele>
        <time>2022-08-01T14:23:19.877Z</time>
      </trkpt>
      <trkpt lat="46.35671" lon="6.7149">
        <ele>1416.197573</ele>
        <time>2022-08-01T14:23:28.867Z</time>
      </trkpt>
      <trkpt lat="46.35665" lon="6.71479">
        <ele>1414.638197</ele>
        <time>2022-08-01T14:23:35.880Z</time>
      </trkpt>
      <trkpt lat="46.3566" lon="6.71467">
        <ele>1413.169072</ele>
        <time>2022-08-01T14:23:44.871Z</time>
      </trkpt>
      <trkpt lat="46.35655" lon="6.71455">
        <ele>1411.731636</ele>
        <time>2022-08-01T14:24:00.886Z</time>
      </trkpt>
      <trkpt lat="46.35648" lon="6.71446">
        <ele>1410.214318</ele>
        <time>2022-08-01T14:24:12.862Z</time>
      </trkpt>
      <trkpt lat="46.35639" lon="6.71442">
        <ele>1408.797035</ele>
        <time>2022-08-01T14:24:23.876Z</time>
      </trkpt>
      <trkpt lat="46.35631" lon="6.71437">
        <ele>1407.351183</ele>
        <time>2022-08-01T14:24:32.876Z</time>
      </trkpt>
      <trkpt lat="46.35623" lon="6.71428">
        <ele>1405.826994</ele>
        <time>2022-08-01T14:24:40.871Z</time>
      </trkpt>
      <trkpt lat="46.35614" lon="6.71422">
        <ele>1404.22471</ele>
        <time>2022-08-01T14:24:48.870Z</time>
      </trkpt>
      <trkpt lat="46.35604" lon="6.71423">
        <ele>1402.700026</ele>
        <time>2022-08-01T14:24:58.879Z</time>
      </trkpt>
      <trkpt lat="46.35594" lon="6.71421">
        <ele>1401.523393</ele>
        <time>2022-08-01T14:25:08.889Z</time>
      </trkpt>
      <trkpt lat="46.35586" lon="6.71418">
        <ele>1400.670637</ele>
        <time>2022-08-01T14:25:19.869Z</time>
      </trkpt>
      <trkpt lat="46.35576" lon="6.71414">
        <ele>1399.723719</ele>
        <time>2022-08-01T14:25:29.877Z</time>
      </trkpt>
      <trkpt lat="46.35566" lon="6.71413">
        <ele>1398.817022</ele>
        <time>2022-08-01T14:25:41.880Z</time>
      </trkpt>
      <trkpt lat="46.35558" lon="6.71406">
        <ele>1397.888266</ele>
        <time>2022-08-01T14:25:49.870Z</time>
      </trkpt>
      <trkpt lat="46.35551" lon="6.71394">
        <ele>1396.876419</ele>
        <time>2022-08-01T14:25:57.873Z</time>
      </trkpt>
      <trkpt lat="46.35544" lon="6.71385">
        <ele>1396.012032</ele>
        <time>2022-08-01T14:26:03.862Z</time>
      </trkpt>
      <trkpt lat="46.35539" lon="6.71374">
        <ele>1395.159254</ele>
        <time>2022-08-01T14:26:11.869Z</time>
      </trkpt>
      <trkpt lat="46.35536" lon="6.71362">
        <ele>1394.275968</ele>
        <time>2022-08-01T14:26:19.863Z</time>
      </trkpt>
      <trkpt lat="46.35532" lon="6.71348">
        <ele>1393.358702</ele>
        <time>2022-08-01T14:26:27.869Z</time>
      </trkpt>
      <trkpt lat="46.35529" lon="6.71335">
        <ele>1392.438608</ele>
        <time>2022-08-01T14:26:36.880Z</time>
      </trkpt>
      <trkpt lat="46.35525" lon="6.71322">
        <ele>1391.541144</ele>
        <time>2022-08-01T14:26:47.885Z</time>
      </trkpt>
      <trkpt lat="46.3552" lon="6.71311">
        <ele>1390.619531</ele>
        <time>2022-08-01T14:26:55.892Z</time>
      </trkpt>
      <trkpt lat="46.35513" lon="6.71302">
        <ele>1389.757705</ele>
        <time>2022-08-01T14:27:03.872Z</time>
      </trkpt>
      <trkpt lat="46.35506" lon="6.71291">
        <ele>1388.787415</ele>
        <time>2022-08-01T14:27:13.870Z</time>
      </trkpt>
      <trkpt lat="46.355" lon="6.7128">
        <ele>1387.897528</ele>
        <time>2022-08-01T14:27:20.889Z</time>
      </trkpt>
      <trkpt lat="46.35492" lon="6.71272">
        <ele>1386.944955</ele>
        <time>2022-08-01T14:27:27.874Z</time>
      </trkpt>
      <trkpt lat="46.35484" lon="6.71264">
        <ele>1386.016075</ele>
        <time>2022-08-01T14:27:34.865Z</time>
      </trkpt>
      <trkpt lat="46.35475" lon="6.71257">
        <ele>1385.020512</ele>
        <time>2022-08-01T14:27:42.870Z</time>
      </trkpt>
      <trkpt lat="46.35468" lon="6.71249">
        <ele>1383.672735</ele>
        <time>2022-08-01T14:27:53.870Z</time>
      </trkpt>
      <trkpt lat="46.3546" lon="6.71241">
        <ele>1382.274522</ele>
        <time>2022-08-01T14:28:01.856Z</time>
      </trkpt>
      <trkpt lat="46.35452" lon="6.71234">
        <ele>1380.870057</ele>
        <time>2022-08-01T14:28:09.866Z</time>
      </trkpt>
      <trkpt lat="46.35442" lon="6.71229">
        <ele>1379.332714</ele>
        <time>2022-08-01T14:28:17.884Z</time>
      </trkpt>
      <trkpt lat="46.35433" lon="6.71224">
        <ele>1377.961446</ele>
        <time>2022-08-01T14:28:29.884Z</time>
      </trkpt>
      <trkpt lat="46.35424" lon="6.71219">
        <ele>1376.594795</ele>
        <time>2022-08-01T14:28:37.898Z</time>
      </trkpt>
      <trkpt lat="46.35415" lon="6.71216">
        <ele>1375.179404</ele>
        <time>2022-08-01T14:28:45.895Z</time>
      </trkpt>
      <trkpt lat="46.35406" lon="6.71211">
        <ele>1373.780777</ele>
        <time>2022-08-01T14:28:56.888Z</time>
      </trkpt>
      <trkpt lat="46.35397" lon="6.71213">
        <ele>1372.325085</ele>
        <time>2022-08-01T14:29:03.896Z</time>
      </trkpt>
      <trkpt lat="46.35387" lon="6.71212">
        <ele>1370.840442</ele>
        <time>2022-08-01T14:29:09.893Z</time>
      </trkpt>
      <trkpt lat="46.35378" lon="6.71208">
        <ele>1369.465356</ele>
        <time>2022-08-01T14:29:16.895Z</time>
      </trkpt>
      <trkpt lat="46.35369" lon="6.712">
        <ele>1367.981763</ele>
        <time>2022-08-01T14:29:25.874Z</time>
      </trkpt>
      <trkpt lat="46.35361" lon="6.71194">
        <ele>1366.639308</ele>
        <time>2022-08-01T14:29:33.890Z</time>
      </trkpt>
      <trkpt lat="46.35352" lon="6.71189">
        <ele>1365.27376</ele>
        <time>2022-08-01T14:29:41.888Z</time>
      </trkpt>
      <trkpt lat="46.35343" lon="6.71186">
        <ele>1363.879909</ele>
        <time>2022-08-01T14:29:50.869Z</time>
      </trkpt>
      <trkpt lat="46.35334" lon="6.71186">
        <ele>1362.477095</ele>
        <time>2022-08-01T14:30:06.897Z</time>
      </trkpt>
      <trkpt lat="46.35325" lon="6.7118">
        <ele>1361.094934</ele>
        <time>2022-08-01T14:30:13.879Z</time>
      </trkpt>
      <trkpt lat="46.35319" lon="6.71171">
        <ele>1359.750452</ele>
        <time>2022-08-01T14:30:24.894Z</time>
      </trkpt>
      <trkpt lat="46.35309" lon="6.71169">
        <ele>1358.142225</ele>
        <time>2022-08-01T14:30:35.903Z</time>
      </trkpt>
      <trkpt lat="46.353" lon="6.71162">
        <ele>1355.883453</ele>
        <time>2022-08-01T14:30:45.893Z</time>
      </trkpt>
      <trkpt lat="46.3529" lon="6.71153">
        <ele>1353.395326</ele>
        <time>2022-08-01T14:32:06.940Z</time>
      </trkpt>
      <trkpt lat="46.35281" lon="6.71154">
        <ele>1351.281886</ele>
        <time>2022-08-01T14:32:14.928Z</time>
      </trkpt>
      <trkpt lat="46.35273" lon="6.71135">
        <ele>1347.871057</ele>
        <time>2022-08-01T14:34:28.953Z</time>
      </trkpt>
      <trkpt lat="46.35275" lon="6.71122">
        <ele>1345.789209</ele>
        <time>2022-08-01T14:34:35.936Z</time>
      </trkpt>
      <trkpt lat="46.35284" lon="6.71115">
        <ele>1343.598752</ele>
        <time>2022-08-01T14:34:46.944Z</time>
      </trkpt>
      <trkpt lat="46.35292" lon="6.7111">
        <ele>1341.575979</ele>
        <time>2022-08-01T14:34:56.934Z</time>
      </trkpt>
      <trkpt lat="46.35302" lon="6.71107">
        <ele>1339.423679</ele>
        <time>2022-08-01T14:35:08.907Z</time>
      </trkpt>
      <trkpt lat="46.35312" lon="6.71109">
        <ele>1337.213682</ele>
        <time>2022-08-01T14:35:17.939Z</time>
      </trkpt>
      <trkpt lat="46.35321" lon="6.71109">
        <ele>1335.079182</ele>
        <time>2022-08-01T14:35:27.923Z</time>
      </trkpt>
      <trkpt lat="46.35326" lon="6.71097">
        <ele>1333.031626</ele>
        <time>2022-08-01T14:35:36.951Z</time>
      </trkpt>
      <trkpt lat="46.35328" lon="6.71083">
        <ele>1330.786286</ele>
        <time>2022-08-01T14:35:44.946Z</time>
      </trkpt>
      <trkpt lat="46.35331" lon="6.71069">
        <ele>1328.647808</ele>
        <time>2022-08-01T14:35:53.955Z</time>
      </trkpt>
      <trkpt lat="46.35334" lon="6.71057">
        <ele>1326.593948</ele>
        <time>2022-08-01T14:36:01.967Z</time>
      </trkpt>
      <trkpt lat="46.35337" lon="6.71045">
        <ele>1324.575949</ele>
        <time>2022-08-01T14:36:08.939Z</time>
      </trkpt>
      <trkpt lat="46.35339" lon="6.71032">
        <ele>1322.556428</ele>
        <time>2022-08-01T14:36:14.954Z</time>
      </trkpt>
      <trkpt lat="46.35341" lon="6.71018">
        <ele>1320.402977</ele>
        <time>2022-08-01T14:36:23.925Z</time>
      </trkpt>
      <trkpt lat="46.35343" lon="6.71004">
        <ele>1318.327316</ele>
        <time>2022-08-01T14:36:32.955Z</time>
      </trkpt>
      <trkpt lat="46.35342" lon="6.70991">
        <ele>1316.632086</ele>
        <time>2022-08-01T14:36:41.932Z</time>
      </trkpt>
      <trkpt lat="46.35374" lon="6.70963">
        <ele>1310.057449</ele>
        <time>2022-08-01T14:39:49.937Z</time>
      </trkpt>
      <trkpt lat="46.35383" lon="6.7096">
        <ele>1308.334732</ele>
        <time>2022-08-01T14:39:58.898Z</time>
      </trkpt>
      <trkpt lat="46.35392" lon="6.70952">
        <ele>1306.517409</ele>
        <time>2022-08-01T14:40:05.930Z</time>
      </trkpt>
      <trkpt lat="46.35399" lon="6.70941">
        <ele>1304.681889</ele>
        <time>2022-08-01T14:40:14.906Z</time>
      </trkpt>
      <trkpt lat="46.35404" lon="6.7093">
        <ele>1303.030333</ele>
        <time>2022-08-01T14:40:22.917Z</time>
      </trkpt>
      <trkpt lat="46.35411" lon="6.70921">
        <ele>1301.315627</ele>
        <time>2022-08-01T14:40:38.948Z</time>
      </trkpt>
      <trkpt lat="46.35415" lon="6.70909">
        <ele>1299.648946</ele>
        <time>2022-08-01T14:40:45.867Z</time>
      </trkpt>
      <trkpt lat="46.35419" lon="6.70896">
        <ele>1297.945661</ele>
        <time>2022-08-01T14:40:51.900Z</time>
      </trkpt>
      <trkpt lat="46.35421" lon="6.70883">
        <ele>1296.341707</ele>
        <time>2022-08-01T14:40:57.930Z</time>
      </trkpt>
      <trkpt lat="46.35422" lon="6.7087">
        <ele>1294.694527</ele>
        <time>2022-08-01T14:41:06.927Z</time>
      </trkpt>
      <trkpt lat="46.35422" lon="6.70856">
        <ele>1293.029893</ele>
        <time>2022-08-01T14:41:15.939Z</time>
      </trkpt>
      <trkpt lat="46.35421" lon="6.70843">
        <ele>1291.342582</ele>
        <time>2022-08-01T14:41:24.938Z</time>
      </trkpt>
      <trkpt lat="46.35417" lon="6.70831">
        <ele>1289.676785</ele>
        <time>2022-08-01T14:41:39.947Z</time>
      </trkpt>
      <trkpt lat="46.35414" lon="6.70818">
        <ele>1287.963978</ele>
        <time>2022-08-01T14:41:50.941Z</time>
      </trkpt>
      <trkpt lat="46.35414" lon="6.70805">
        <ele>1286.29138</ele>
        <time>2022-08-01T14:42:00.932Z</time>
      </trkpt>
      <trkpt lat="46.35414" lon="6.70791">
        <ele>1283.894378</ele>
        <time>2022-08-01T14:42:08.913Z</time>
      </trkpt>
      <trkpt lat="46.35415" lon="6.70777">
        <ele>1281.459219</ele>
        <time>2022-08-01T14:42:17.933Z</time>
      </trkpt>
      <trkpt lat="46.35415" lon="6.70763">
        <ele>1279.079847</ele>
        <time>2022-08-01T14:42:23.935Z</time>
      </trkpt>
      <trkpt lat="46.35414" lon="6.70748">
        <ele>1276.416203</ele>
        <time>2022-08-01T14:42:30.894Z</time>
      </trkpt>
      <trkpt lat="46.35414" lon="6.70734">
        <ele>1273.913849</ele>
        <time>2022-08-01T14:42:38.915Z</time>
      </trkpt>
      <trkpt lat="46.35415" lon="6.70721">
        <ele>1271.569115</ele>
        <time>2022-08-01T14:42:45.914Z</time>
      </trkpt>
      <trkpt lat="46.35416" lon="6.70706">
        <ele>1269.014287</ele>
        <time>2022-08-01T14:42:59.913Z</time>
      </trkpt>
      <trkpt lat="46.35418" lon="6.70692">
        <ele>1266.507489</ele>
        <time>2022-08-01T14:43:10.923Z</time>
      </trkpt>
      <trkpt lat="46.35422" lon="6.7068">
        <ele>1264.229378</ele>
        <time>2022-08-01T14:43:18.955Z</time>
      </trkpt>
      <trkpt lat="46.35419" lon="6.70668">
        <ele>1261.838841</ele>
        <time>2022-08-01T14:43:29.930Z</time>
      </trkpt>
      <trkpt lat="46.35413" lon="6.70644">
        <ele>1257.42301</ele>
        <time>2022-08-01T14:44:38.948Z</time>
      </trkpt>
      <trkpt lat="46.35414" lon="6.70631">
        <ele>1255.128359</ele>
        <time>2022-08-01T14:44:47.918Z</time>
      </trkpt>
      <trkpt lat="46.35411" lon="6.70618">
        <ele>1252.795851</ele>
        <time>2022-08-01T14:44:55.936Z</time>
      </trkpt>
      <trkpt lat="46.35396" lon="6.70547">
        <ele>1239.579407</ele>
        <time>2022-08-01T14:47:10.924Z</time>
      </trkpt>
      <trkpt lat="46.35387" lon="6.70477">
        <ele>1224.746621</ele>
        <time>2022-08-01T14:49:55.918Z</time>
      </trkpt>
      <trkpt lat="46.35384" lon="6.70463">
        <ele>1221.725903</ele>
        <time>2022-08-01T14:50:07.945Z</time>
      </trkpt>
      <trkpt lat="46.35378" lon="6.70453">
        <ele>1218.875695</ele>
        <time>2022-08-01T14:50:21.877Z</time>
      </trkpt>
      <trkpt lat="46.35375" lon="6.70439">
        <ele>1215.961947</ele>
        <time>2022-08-01T14:50:33.940Z</time>
      </trkpt>
      <trkpt lat="46.35367" lon="6.70413">
        <ele>1209.92454</ele>
        <time>2022-08-01T14:51:25.947Z</time>
      </trkpt>
      <trkpt lat="46.35365" lon="6.704">
        <ele>1207.190783</ele>
        <time>2022-08-01T14:51:36.932Z</time>
      </trkpt>
      <trkpt lat="46.35367" lon="6.70387">
        <ele>1204.401611</ele>
        <time>2022-08-01T14:51:47.962Z</time>
      </trkpt>
      <trkpt lat="46.35376" lon="6.70386">
        <ele>1201.594623</ele>
        <time>2022-08-01T14:51:55.959Z</time>
      </trkpt>
      <trkpt lat="46.35387" lon="6.70369">
        <ele>1196.790407</ele>
        <time>2022-08-01T14:53:08.938Z</time>
      </trkpt>
      <trkpt lat="46.35383" lon="6.70357">
        <ele>1193.916545</ele>
        <time>2022-08-01T14:53:15.933Z</time>
      </trkpt>
      <trkpt lat="46.3538" lon="6.70344">
        <ele>1190.970792</ele>
        <time>2022-08-01T14:53:25.965Z</time>
      </trkpt>
      <trkpt lat="46.35375" lon="6.70332">
        <ele>1188.156037</ele>
        <time>2022-08-01T14:53:33.943Z</time>
      </trkpt>
      <trkpt lat="46.35371" lon="6.7032">
        <ele>1186.205005</ele>
        <time>2022-08-01T14:53:43.927Z</time>
      </trkpt>
      <trkpt lat="46.35362" lon="6.70316">
        <ele>1185.167739</ele>
        <time>2022-08-01T14:53:56.947Z</time>
      </trkpt>
      <trkpt lat="46.35354" lon="6.70321">
        <ele>1184.123385</ele>
        <time>2022-08-01T14:54:03.930Z</time>
      </trkpt>
      <trkpt lat="46.35346" lon="6.70329">
        <ele>1183.022372</ele>
        <time>2022-08-01T14:54:10.954Z</time>
      </trkpt>
      <trkpt lat="46.35339" lon="6.70338">
        <ele>1181.969315</ele>
        <time>2022-08-01T14:54:19.937Z</time>
      </trkpt>
      <trkpt lat="46.35331" lon="6.70346">
        <ele>1180.961726</ele>
        <time>2022-08-01T14:54:28.951Z</time>
      </trkpt>
      <trkpt lat="46.35323" lon="6.70354">
        <ele>1179.855467</ele>
        <time>2022-08-01T14:54:36.959Z</time>
      </trkpt>
      <trkpt lat="46.35314" lon="6.7036">
        <ele>1178.700749</ele>
        <time>2022-08-01T14:54:44.942Z</time>
      </trkpt>
      <trkpt lat="46.35305" lon="6.70367">
        <ele>1177.593639</ele>
        <time>2022-08-01T14:54:53.949Z</time>
      </trkpt>
      <trkpt lat="46.35289" lon="6.70379">
        <ele>1175.564544</ele>
        <time>2022-08-01T14:55:45.939Z</time>
      </trkpt>
      <trkpt lat="46.3528" lon="6.70383">
        <ele>1174.52396</ele>
        <time>2022-08-01T14:55:58.971Z</time>
      </trkpt>
      <trkpt lat="46.35271" lon="6.7039">
        <ele>1173.419851</ele>
        <time>2022-08-01T14:56:06.935Z</time>
      </trkpt>
      <trkpt lat="46.35262" lon="6.70397">
        <ele>1172.320749</ele>
        <time>2022-08-01T14:56:14.943Z</time>
      </trkpt>
      <trkpt lat="46.35254" lon="6.70402">
        <ele>1171.286174</ele>
        <time>2022-08-01T14:56:22.939Z</time>
      </trkpt>
      <trkpt lat="46.35244" lon="6.70402">
        <ele>1170.203623</ele>
        <time>2022-08-01T14:56:33.960Z</time>
      </trkpt>
      <trkpt lat="46.35235" lon="6.70406">
        <ele>1169.127725</ele>
        <time>2022-08-01T14:56:46.939Z</time>
      </trkpt>
      <trkpt lat="46.35225" lon="6.70402">
        <ele>1167.982548</ele>
        <time>2022-08-01T14:56:53.956Z</time>
      </trkpt>
      <trkpt lat="46.35225" lon="6.70386">
        <ele>1166.813092</ele>
        <time>2022-08-01T14:57:02.927Z</time>
      </trkpt>
      <trkpt lat="46.35228" lon="6.70373">
        <ele>1166.065331</ele>
        <time>2022-08-01T14:57:10.915Z</time>
      </trkpt>
      <trkpt lat="46.3523" lon="6.7036">
        <ele>1165.392254</ele>
        <time>2022-08-01T14:57:20.948Z</time>
      </trkpt>
      <trkpt lat="46.35232" lon="6.70346">
        <ele>1164.703675</ele>
        <time>2022-08-01T14:57:29.951Z</time>
      </trkpt>
      <trkpt lat="46.35232" lon="6.70331">
        <ele>1164.009732</ele>
        <time>2022-08-01T14:57:37.950Z</time>
      </trkpt>
      <trkpt lat="46.35232" lon="6.70318">
        <ele>1163.340992</ele>
        <time>2022-08-01T14:57:48.950Z</time>
      </trkpt>
      <trkpt lat="46.35233" lon="6.70305">
        <ele>1162.704126</ele>
        <time>2022-08-01T14:58:05.960Z</time>
      </trkpt>
      <trkpt lat="46.35241" lon="6.70279">
        <ele>1161.321027</ele>
        <time>2022-08-01T14:58:29.934Z</time>
      </trkpt>
      <trkpt lat="46.35244" lon="6.70267">
        <ele>1160.682303</ele>
        <time>2022-08-01T14:58:38.922Z</time>
      </trkpt>
      <trkpt lat="46.35251" lon="6.70258">
        <ele>1160.040397</ele>
        <time>2022-08-01T14:58:45.906Z</time>
      </trkpt>
      <trkpt lat="46.3526" lon="6.70252">
        <ele>1159.364591</ele>
        <time>2022-08-01T14:59:02.988Z</time>
      </trkpt>
      <trkpt lat="46.35269" lon="6.7025">
        <ele>1158.709603</ele>
        <time>2022-08-01T14:59:10.940Z</time>
      </trkpt>
      <trkpt lat="46.35272" lon="6.70238">
        <ele>1158.070092</ele>
        <time>2022-08-01T14:59:26.961Z</time>
      </trkpt>
      <trkpt lat="46.35275" lon="6.70207">
        <ele>1156.579378</ele>
        <time>2022-08-01T15:00:22.932Z</time>
      </trkpt>
      <trkpt lat="46.35278" lon="6.70194">
        <ele>1155.908944</ele>
        <time>2022-08-01T15:00:34.940Z</time>
      </trkpt>
      <trkpt lat="46.35303" lon="6.70186">
        <ele>1154.057694</ele>
        <time>2022-08-01T15:01:16.934Z</time>
      </trkpt>
      <trkpt lat="46.35344" lon="6.70168">
        <ele>1149.571653</ele>
        <time>2022-08-01T15:02:20.962Z</time>
      </trkpt>
      <trkpt lat="46.35353" lon="6.70163">
        <ele>1148.529614</ele>
        <time>2022-08-01T15:02:31.946Z</time>
      </trkpt>
      <trkpt lat="46.35361" lon="6.70155">
        <ele>1147.481275</ele>
        <time>2022-08-01T15:02:38.916Z</time>
      </trkpt>
      <trkpt lat="46.35368" lon="6.70146">
        <ele>1146.429472</ele>
        <time>2022-08-01T15:02:46.928Z</time>
      </trkpt>
      <trkpt lat="46.35386" lon="6.70142">
        <ele>1144.46828</ele>
        <time>2022-08-01T15:03:44.918Z</time>
      </trkpt>
      <trkpt lat="46.35393" lon="6.70133">
        <ele>1143.465298</ele>
        <time>2022-08-01T15:04:08.936Z</time>
      </trkpt>
      <trkpt lat="46.35403" lon="6.7013">
        <ele>1142.385019</ele>
        <time>2022-08-01T15:04:16.897Z</time>
      </trkpt>
      <trkpt lat="46.3542" lon="6.70111">
        <ele>1140.051862</ele>
        <time>2022-08-01T15:05:06.951Z</time>
      </trkpt>
      <trkpt lat="46.35425" lon="6.70099">
        <ele>1138.993792</ele>
        <time>2022-08-01T15:05:17.945Z</time>
      </trkpt>
      <trkpt lat="46.35431" lon="6.70088">
        <ele>1137.984963</ele>
        <time>2022-08-01T15:05:24.914Z</time>
      </trkpt>
      <trkpt lat="46.35439" lon="6.70081">
        <ele>1137.012381</ele>
        <time>2022-08-01T15:05:29.949Z</time>
      </trkpt>
      <trkpt lat="46.35445" lon="6.70071">
        <ele>1136.000202</ele>
        <time>2022-08-01T15:05:36.938Z</time>
      </trkpt>
      <trkpt lat="46.35453" lon="6.70063">
        <ele>1134.944468</ele>
        <time>2022-08-01T15:05:42.942Z</time>
      </trkpt>
      <trkpt lat="46.35462" lon="6.70059">
        <ele>1133.757759</ele>
        <time>2022-08-01T15:05:53.935Z</time>
      </trkpt>
      <trkpt lat="46.35469" lon="6.70049">
        <ele>1132.395576</ele>
        <time>2022-08-01T15:06:04.948Z</time>
      </trkpt>
      <trkpt lat="46.35476" lon="6.7004">
        <ele>1131.040564</ele>
        <time>2022-08-01T15:06:18.942Z</time>
      </trkpt>
      <trkpt lat="46.35485" lon="6.70033">
        <ele>1129.586421</ele>
        <time>2022-08-01T15:06:31.962Z</time>
      </trkpt>
      <trkpt lat="46.35493" lon="6.70024">
        <ele>1128.056556</ele>
        <time>2022-08-01T15:06:41.909Z</time>
      </trkpt>
      <trkpt lat="46.35502" lon="6.70018">
        <ele>1126.717137</ele>
        <time>2022-08-01T15:06:51.943Z</time>
      </trkpt>
      <trkpt lat="46.35524" lon="6.70004">
        <ele>1123.211992</ele>
        <time>2022-08-01T15:07:36.923Z</time>
      </trkpt>
      <trkpt lat="46.35531" lon="6.69996">
        <ele>1121.857754</ele>
        <time>2022-08-01T15:07:46.909Z</time>
      </trkpt>
      <trkpt lat="46.35541" lon="6.69995">
        <ele>1120.530321</ele>
        <time>2022-08-01T15:08:03.957Z</time>
      </trkpt>
      <trkpt lat="46.35549" lon="6.70001">
        <ele>1119.227989</ele>
        <time>2022-08-01T15:08:16.936Z</time>
      </trkpt>
      <trkpt lat="46.35555" lon="6.6999">
        <ele>1117.810448</ele>
        <time>2022-08-01T15:08:36.918Z</time>
      </trkpt>
      <trkpt lat="46.35561" lon="6.6998">
        <ele>1116.420956</ele>
        <time>2022-08-01T15:08:44.962Z</time>
      </trkpt>
      <trkpt lat="46.35567" lon="6.69968">
        <ele>1114.955382</ele>
        <time>2022-08-01T15:08:51.915Z</time>
      </trkpt>
      <trkpt lat="46.35572" lon="6.69957">
        <ele>1113.644571</ele>
        <time>2022-08-01T15:09:00.941Z</time>
      </trkpt>
      <trkpt lat="46.35577" lon="6.69946">
        <ele>1112.326276</ele>
        <time>2022-08-01T15:09:12.925Z</time>
      </trkpt>
      <trkpt lat="46.35585" lon="6.69937">
        <ele>1110.982591</ele>
        <time>2022-08-01T15:09:23.957Z</time>
      </trkpt>
      <trkpt lat="46.35592" lon="6.69927">
        <ele>1109.558651</ele>
        <time>2022-08-01T15:09:30.926Z</time>
      </trkpt>
      <trkpt lat="46.35598" lon="6.69918">
        <ele>1108.338017</ele>
        <time>2022-08-01T15:09:38.922Z</time>
      </trkpt>
      <trkpt lat="46.35603" lon="6.69907">
        <ele>1107.272172</ele>
        <time>2022-08-01T15:09:48.954Z</time>
      </trkpt>
      <trkpt lat="46.35607" lon="6.69894">
        <ele>1106.174912</ele>
        <time>2022-08-01T15:10:00.940Z</time>
      </trkpt>
      <trkpt lat="46.35611" lon="6.6988">
        <ele>1104.967147</ele>
        <time>2022-08-01T15:10:08.935Z</time>
      </trkpt>
      <trkpt lat="46.35616" lon="6.69868">
        <ele>1103.898014</ele>
        <time>2022-08-01T15:10:14.946Z</time>
      </trkpt>
      <trkpt lat="46.35621" lon="6.69857">
        <ele>1102.800058</ele>
        <time>2022-08-01T15:10:23.936Z</time>
      </trkpt>
      <trkpt lat="46.35625" lon="6.69844">
        <ele>1101.730883</ele>
        <time>2022-08-01T15:10:29.942Z</time>
      </trkpt>
      <trkpt lat="46.3563" lon="6.69832">
        <ele>1100.638541</ele>
        <time>2022-08-01T15:10:35.961Z</time>
      </trkpt>
      <trkpt lat="46.35633" lon="6.69819">
        <ele>1099.514928</ele>
        <time>2022-08-01T15:10:43.923Z</time>
      </trkpt>
      <trkpt lat="46.3563" lon="6.69805">
        <ele>1098.408566</ele>
        <time>2022-08-01T15:11:17.952Z</time>
      </trkpt>
      <trkpt lat="46.35634" lon="6.69793">
        <ele>1097.349427</ele>
        <time>2022-08-01T15:11:31.932Z</time>
      </trkpt>
      <trkpt lat="46.35638" lon="6.69779">
        <ele>1096.124124</ele>
        <time>2022-08-01T15:11:39.944Z</time>
      </trkpt>
      <trkpt lat="46.35638" lon="6.69764">
        <ele>1094.987376</ele>
        <time>2022-08-01T15:11:46.925Z</time>
      </trkpt>
      <trkpt lat="46.35639" lon="6.6975">
        <ele>1093.843841</ele>
        <time>2022-08-01T15:11:52.914Z</time>
      </trkpt>
      <trkpt lat="46.35643" lon="6.69737">
        <ele>1092.765653</ele>
        <time>2022-08-01T15:11:58.893Z</time>
      </trkpt>
      <trkpt lat="46.3565" lon="6.69727">
        <ele>1091.66551</ele>
        <time>2022-08-01T15:12:09.942Z</time>
      </trkpt>
      <trkpt lat="46.35658" lon="6.6972">
        <ele>1090.610496</ele>
        <time>2022-08-01T15:12:18.933Z</time>
      </trkpt>
      <trkpt lat="46.35663" lon="6.69709">
        <ele>1089.512009</ele>
        <time>2022-08-01T15:12:25.916Z</time>
      </trkpt>
      <trkpt lat="46.35669" lon="6.69696">
        <ele>1088.329586</ele>
        <time>2022-08-01T15:12:36.927Z</time>
      </trkpt>
      <trkpt lat="46.35672" lon="6.69683">
        <ele>1087.510257</ele>
        <time>2022-08-01T15:12:43.951Z</time>
      </trkpt>
      <trkpt lat="46.35675" lon="6.69671">
        <ele>1086.824943</ele>
        <time>2022-08-01T15:12:50.949Z</time>
      </trkpt>
      <trkpt lat="46.35678" lon="6.69658">
        <ele>1086.12979</ele>
        <time>2022-08-01T15:12:58.969Z</time>
      </trkpt>
      <trkpt lat="46.35679" lon="6.69644">
        <ele>1085.390977</ele>
        <time>2022-08-01T15:13:06.983Z</time>
      </trkpt>
      <trkpt lat="46.35679" lon="6.6963">
        <ele>1084.69141</ele>
        <time>2022-08-01T15:13:13.954Z</time>
      </trkpt>
      <trkpt lat="46.3568" lon="6.69617">
        <ele>1083.998271</ele>
        <time>2022-08-01T15:13:24.875Z</time>
      </trkpt>
      <trkpt lat="46.35683" lon="6.69603">
        <ele>1083.292329</ele>
        <time>2022-08-01T15:13:32.906Z</time>
      </trkpt>
      <trkpt lat="46.35684" lon="6.69588">
        <ele>1082.515759</ele>
        <time>2022-08-01T15:13:38.952Z</time>
      </trkpt>
      <trkpt lat="46.35686" lon="6.69575">
        <ele>1081.812244</ele>
        <time>2022-08-01T15:13:45.940Z</time>
      </trkpt>
      <trkpt lat="46.35696" lon="6.69546">
        <ele>1080.131259</ele>
        <time>2022-08-01T15:14:17.962Z</time>
      </trkpt>
      <trkpt lat="46.35702" lon="6.69536">
        <ele>1079.439649</ele>
        <time>2022-08-01T15:14:23.915Z</time>
      </trkpt>
      <trkpt lat="46.35709" lon="6.69526">
        <ele>1078.745802</ele>
        <time>2022-08-01T15:14:31.935Z</time>
      </trkpt>
      <trkpt lat="46.35716" lon="6.69517">
        <ele>1078.059535</ele>
        <time>2022-08-01T15:14:37.930Z</time>
      </trkpt>
      <trkpt lat="46.35717" lon="6.69503">
        <ele>1077.310603</ele>
        <time>2022-08-01T15:14:47.926Z</time>
      </trkpt>
      <trkpt lat="46.35714" lon="6.6949">
        <ele>1076.575906</ele>
        <time>2022-08-01T15:14:58.965Z</time>
      </trkpt>
      <trkpt lat="46.3571" lon="6.69477">
        <ele>1075.865084</ele>
        <time>2022-08-01T15:15:07.957Z</time>
      </trkpt>
      <trkpt lat="46.35711" lon="6.69463">
        <ele>1075.144681</ele>
        <time>2022-08-01T15:15:24.947Z</time>
      </trkpt>
      <trkpt lat="46.35713" lon="6.6945">
        <ele>1074.496101</ele>
        <time>2022-08-01T15:15:33.947Z</time>
      </trkpt>
      <trkpt lat="46.35712" lon="6.69436">
        <ele>1073.951142</ele>
        <time>2022-08-01T15:15:44.926Z</time>
      </trkpt>
      <trkpt lat="46.3571" lon="6.69422">
        <ele>1073.37422</ele>
        <time>2022-08-01T15:15:53.974Z</time>
      </trkpt>
      <trkpt lat="46.35711" lon="6.69408">
        <ele>1072.794115</ele>
        <time>2022-08-01T15:16:00.950Z</time>
      </trkpt>
      <trkpt lat="46.35711" lon="6.69395">
        <ele>1072.258164</ele>
        <time>2022-08-01T15:16:16.936Z</time>
      </trkpt>
      <trkpt lat="46.3571" lon="6.69379">
        <ele>1071.640078</ele>
        <time>2022-08-01T15:16:21.960Z</time>
      </trkpt>
      <trkpt lat="46.35708" lon="6.69366">
        <ele>1071.104325</ele>
        <time>2022-08-01T15:16:29.933Z</time>
      </trkpt>
      <trkpt lat="46.3571" lon="6.69353">
        <ele>1070.561313</ele>
        <time>2022-08-01T15:16:41.911Z</time>
      </trkpt>
      <trkpt lat="46.3571" lon="6.69331">
        <ele>1069.684898</ele>
        <time>2022-08-01T15:17:18.943Z</time>
      </trkpt>
      <trkpt lat="46.35712" lon="6.69316">
        <ele>1069.062031</ele>
        <time>2022-08-01T15:17:24.930Z</time>
      </trkpt>
      <trkpt lat="46.35716" lon="6.69303">
        <ele>1068.518438</ele>
        <time>2022-08-01T15:17:30.875Z</time>
      </trkpt>
      <trkpt lat="46.35721" lon="6.69291">
        <ele>1067.939467</ele>
        <time>2022-08-01T15:17:40.953Z</time>
      </trkpt>
      <trkpt lat="46.35729" lon="6.69284">
        <ele>1067.385379</ele>
        <time>2022-08-01T15:17:46.912Z</time>
      </trkpt>
      <trkpt lat="46.35738" lon="6.69281">
        <ele>1066.857509</ele>
        <time>2022-08-01T15:17:54.929Z</time>
      </trkpt>
      <trkpt lat="46.35746" lon="6.69275">
        <ele>1066.326045</ele>
        <time>2022-08-01T15:18:02.940Z</time>
      </trkpt>
      <trkpt lat="46.35746" lon="6.69261">
        <ele>1065.779472</ele>
        <time>2022-08-01T15:18:10.950Z</time>
      </trkpt>
      <trkpt lat="46.35744" lon="6.69248">
        <ele>1065.216922</ele>
        <time>2022-08-01T15:18:18.923Z</time>
      </trkpt>
      <trkpt lat="46.35748" lon="6.69234">
        <ele>1064.626796</ele>
        <time>2022-08-01T15:18:25.954Z</time>
      </trkpt>
      <trkpt lat="46.35755" lon="6.69226">
        <ele>1064.17322</ele>
        <time>2022-08-01T15:18:33.954Z</time>
      </trkpt>
      <trkpt lat="46.35764" lon="6.6922">
        <ele>1064.101441</ele>
        <time>2022-08-01T15:18:41.925Z</time>
      </trkpt>
      <trkpt lat="46.35773" lon="6.69219">
        <ele>1064.031873</ele>
        <time>2022-08-01T15:18:48.940Z</time>
      </trkpt>
      <trkpt lat="46.35783" lon="6.69219">
        <ele>1063.96417</ele>
        <time>2022-08-01T15:19:02.939Z</time>
      </trkpt>
      <trkpt lat="46.35792" lon="6.69215">
        <ele>1063.894467</ele>
        <time>2022-08-01T15:19:11.948Z</time>
      </trkpt>
      <trkpt lat="46.35798" lon="6.69205">
        <ele>1063.824715</ele>
        <time>2022-08-01T15:19:18.926Z</time>
      </trkpt>
      <trkpt lat="46.3579" lon="6.6919">
        <ele>1063.728275</ele>
        <time>2022-08-01T15:20:07.951Z</time>
      </trkpt>
      <trkpt lat="46.35782" lon="6.69184">
        <ele>1063.658704</ele>
        <time>2022-08-01T15:20:17.941Z</time>
      </trkpt>
      <trkpt lat="46.35771" lon="6.69181">
        <ele>1063.577839</ele>
        <time>2022-08-01T15:20:35.919Z</time>
      </trkpt>
      <trkpt lat="46.35761" lon="6.69181">
        <ele>1063.507218</ele>
        <time>2022-08-01T15:20:40.938Z</time>
      </trkpt>
      <trkpt lat="46.35754" lon="6.69173">
        <ele>1063.441371</ele>
        <time>2022-08-01T15:20:52.975Z</time>
      </trkpt>
      <trkpt lat="46.35749" lon="6.69162">
        <ele>1063.375209</ele>
        <time>2022-08-01T15:21:00.914Z</time>
      </trkpt>
      <trkpt lat="46.3575" lon="6.69149">
        <ele>1063.309212</ele>
        <time>2022-08-01T15:21:07.923Z</time>
      </trkpt>
      <trkpt lat="46.35752" lon="6.69136">
        <ele>1063.241962</ele>
        <time>2022-08-01T15:21:17.962Z</time>
      </trkpt>
      <trkpt lat="46.35754" lon="6.69122">
        <ele>1063.170132</ele>
        <time>2022-08-01T15:21:25.926Z</time>
      </trkpt>
      <trkpt lat="46.35752" lon="6.69108">
        <ele>1063.100268</ele>
        <time>2022-08-01T15:21:32.895Z</time>
      </trkpt>
      <trkpt lat="46.35751" lon="6.69095">
        <ele>1063.032968</ele>
        <time>2022-08-01T15:21:39.930Z</time>
      </trkpt>
      <trkpt lat="46.35751" lon="6.69081">
        <ele>1062.963071</ele>
        <time>2022-08-01T15:21:47.904Z</time>
      </trkpt>
      <trkpt lat="46.35748" lon="6.69068">
        <ele>1062.895551</ele>
        <time>2022-08-01T15:21:55.893Z</time>
      </trkpt>
      <trkpt lat="46.35745" lon="6.69056">
        <ele>1062.519572</ele>
        <time>2022-08-01T15:22:03.928Z</time>
      </trkpt>
      <trkpt lat="46.35743" lon="6.69043">
        <ele>1062.018619</ele>
        <time>2022-08-01T15:22:10.908Z</time>
      </trkpt>
      <trkpt lat="46.35739" lon="6.69031">
        <ele>1061.511831</ele>
        <time>2022-08-01T15:22:17.876Z</time>
      </trkpt>
      <trkpt lat="46.35734" lon="6.69018">
        <ele>1060.950617</ele>
        <time>2022-08-01T15:22:25.899Z</time>
      </trkpt>
      <trkpt lat="46.35726" lon="6.6901">
        <ele>1060.396043</ele>
        <time>2022-08-01T15:22:34.955Z</time>
      </trkpt>
      <trkpt lat="46.35718" lon="6.69002">
        <ele>1059.868475</ele>
        <time>2022-08-01T15:22:41.954Z</time>
      </trkpt>
      <trkpt lat="46.3571" lon="6.68994">
        <ele>1059.365524</ele>
        <time>2022-08-01T15:22:49.928Z</time>
      </trkpt>
      <trkpt lat="46.35703" lon="6.68985">
        <ele>1058.832707</ele>
        <time>2022-08-01T15:22:58.885Z</time>
      </trkpt>
      <trkpt lat="46.35693" lon="6.68969">
        <ele>1058.021245</ele>
        <time>2022-08-01T15:23:28.893Z</time>
      </trkpt>
      <trkpt lat="46.35689" lon="6.68955">
        <ele>1057.470662</ele>
        <time>2022-08-01T15:24:02.944Z</time>
      </trkpt>
      <trkpt lat="46.35684" lon="6.68939">
        <ele>1056.768757</ele>
        <time>2022-08-01T15:25:39.963Z</time>
      </trkpt>
      <trkpt lat="46.35683" lon="6.68924">
        <ele>1056.218559</ele>
        <time>2022-08-01T15:25:45.921Z</time>
      </trkpt>
      <trkpt lat="46.35679" lon="6.68911">
        <ele>1055.671708</ele>
        <time>2022-08-01T15:25:53.908Z</time>
      </trkpt>
      <trkpt lat="46.35676" lon="6.68897">
        <ele>1055.128193</ele>
        <time>2022-08-01T15:26:02.925Z</time>
      </trkpt>
      <trkpt lat="46.35676" lon="6.68879">
        <ele>1054.44505</ele>
        <time>2022-08-01T15:27:30.878Z</time>
      </trkpt>
      <trkpt lat="46.35676" lon="6.68866">
        <ele>1053.936484</ele>
        <time>2022-08-01T15:27:36.864Z</time>
      </trkpt>
      <trkpt lat="46.35675" lon="6.68851">
        <ele>1053.367386</ele>
        <time>2022-08-01T15:27:43.863Z</time>
      </trkpt>
      <trkpt lat="46.35675" lon="6.68836">
        <ele>1052.757432</ele>
        <time>2022-08-01T15:27:51.890Z</time>
      </trkpt>
      <trkpt lat="46.35676" lon="6.68822">
        <ele>1052.09038</ele>
        <time>2022-08-01T15:27:58.938Z</time>
      </trkpt>
      <trkpt lat="46.35675" lon="6.68809">
        <ele>1051.408249</ele>
        <time>2022-08-01T15:28:05.869Z</time>
      </trkpt>
      <trkpt lat="46.35673" lon="6.68794">
        <ele>1050.682684</ele>
        <time>2022-08-01T15:28:12.949Z</time>
      </trkpt>
      <trkpt lat="46.35672" lon="6.68781">
        <ele>1050.013521</ele>
        <time>2022-08-01T15:28:19.907Z</time>
      </trkpt>
      <trkpt lat="46.35672" lon="6.68767">
        <ele>1049.371275</ele>
        <time>2022-08-01T15:28:35.928Z</time>
      </trkpt>
      <trkpt lat="46.3567" lon="6.68753">
        <ele>1048.655202</ele>
        <time>2022-08-01T15:28:41.881Z</time>
      </trkpt>
      <trkpt lat="46.3567" lon="6.6874">
        <ele>1048.012602</ele>
        <time>2022-08-01T15:28:49.895Z</time>
      </trkpt>
      <trkpt lat="46.35672" lon="6.68725">
        <ele>1047.269148</ele>
        <time>2022-08-01T15:28:56.921Z</time>
      </trkpt>
      <trkpt lat="46.35673" lon="6.68712">
        <ele>1046.614937</ele>
        <time>2022-08-01T15:29:02.870Z</time>
      </trkpt>
      <trkpt lat="46.35674" lon="6.68699">
        <ele>1045.970147</ele>
        <time>2022-08-01T15:29:10.914Z</time>
      </trkpt>
      <trkpt lat="46.35671" lon="6.68685">
        <ele>1045.26865</ele>
        <time>2022-08-01T15:29:19.878Z</time>
      </trkpt>
      <trkpt lat="46.35672" lon="6.68671">
        <ele>1044.565959</ele>
        <time>2022-08-01T15:29:26.948Z</time>
      </trkpt>
      <trkpt lat="46.35675" lon="6.68659">
        <ele>1043.924704</ele>
        <time>2022-08-01T15:29:32.963Z</time>
      </trkpt>
      <trkpt lat="46.35676" lon="6.68645">
        <ele>1043.231777</ele>
        <time>2022-08-01T15:29:42.945Z</time>
      </trkpt>
      <trkpt lat="46.35676" lon="6.68631">
        <ele>1042.546041</ele>
        <time>2022-08-01T15:29:57.937Z</time>
      </trkpt>
      <trkpt lat="46.35677" lon="6.68615">
        <ele>1041.774993</ele>
        <time>2022-08-01T15:30:05.959Z</time>
      </trkpt>
      <trkpt lat="46.35679" lon="6.68601">
        <ele>1041.079555</ele>
        <time>2022-08-01T15:30:12.952Z</time>
      </trkpt>
      <trkpt lat="46.35682" lon="6.68587">
        <ele>1040.366533</ele>
        <time>2022-08-01T15:30:19.908Z</time>
      </trkpt>
      <trkpt lat="46.35683" lon="6.68572">
        <ele>1039.660542</ele>
        <time>2022-08-01T15:30:25.879Z</time>
      </trkpt>
      <trkpt lat="46.35683" lon="6.68558">
        <ele>1039.005827</ele>
        <time>2022-08-01T15:30:36.983Z</time>
      </trkpt>
      <trkpt lat="46.35687" lon="6.68546">
        <ele>1038.380107</ele>
        <time>2022-08-01T15:30:44.913Z</time>
      </trkpt>
      <trkpt lat="46.3569" lon="6.68531">
        <ele>1037.68033</ele>
        <time>2022-08-01T15:30:51.921Z</time>
      </trkpt>
      <trkpt lat="46.35694" lon="6.68519">
        <ele>1037.034794</ele>
        <time>2022-08-01T15:30:57.981Z</time>
      </trkpt>
      <trkpt lat="46.35698" lon="6.68506">
        <ele>1036.357408</ele>
        <time>2022-08-01T15:31:05.930Z</time>
      </trkpt>
      <trkpt lat="46.35703" lon="6.68495">
        <ele>1035.720014</ele>
        <time>2022-08-01T15:31:14.971Z</time>
      </trkpt>
      <trkpt lat="46.35709" lon="6.68483">
        <ele>1035.063813</ele>
        <time>2022-08-01T15:31:21.972Z</time>
      </trkpt>
      <trkpt lat="46.35714" lon="6.68472">
        <ele>1034.438279</ele>
        <time>2022-08-01T15:31:29.952Z</time>
      </trkpt>
      <trkpt lat="46.35719" lon="6.6846">
        <ele>1033.777769</ele>
        <time>2022-08-01T15:31:46.926Z</time>
      </trkpt>
      <trkpt lat="46.35717" lon="6.68447">
        <ele>1033.161887</ele>
        <time>2022-08-01T15:31:53.982Z</time>
      </trkpt>
      <trkpt lat="46.35715" lon="6.68434">
        <ele>1032.529546</ele>
        <time>2022-08-01T15:31:59.906Z</time>
      </trkpt>
      <trkpt lat="46.35717" lon="6.68421">
        <ele>1031.901795</ele>
        <time>2022-08-01T15:32:05.946Z</time>
      </trkpt>
      <trkpt lat="46.35719" lon="6.68408">
        <ele>1031.278632</ele>
        <time>2022-08-01T15:32:15.963Z</time>
      </trkpt>
      <trkpt lat="46.35717" lon="6.68395">
        <ele>1030.640288</ele>
        <time>2022-08-01T15:32:23.950Z</time>
      </trkpt>
      <trkpt lat="46.35717" lon="6.68382">
        <ele>1030.025805</ele>
        <time>2022-08-01T15:32:31.929Z</time>
      </trkpt>
      <trkpt lat="46.35716" lon="6.68367">
        <ele>1029.35026</ele>
        <time>2022-08-01T15:32:40.935Z</time>
      </trkpt>
      <trkpt lat="46.35717" lon="6.68354">
        <ele>1028.736052</ele>
        <time>2022-08-01T15:32:49.977Z</time>
      </trkpt>
      <trkpt lat="46.35718" lon="6.6834">
        <ele>1028.051971</ele>
        <time>2022-08-01T15:32:57.952Z</time>
      </trkpt>
      <trkpt lat="46.35717" lon="6.68325">
        <ele>1028.00258</ele>
        <time>2022-08-01T15:33:03.915Z</time>
      </trkpt>
      <trkpt lat="46.35716" lon="6.68312">
        <ele>1028.00258</ele>
        <time>2022-08-01T15:33:09.914Z</time>
      </trkpt>
      <trkpt lat="46.35713" lon="6.68299">
        <ele>1028.00258</ele>
        <time>2022-08-01T15:33:17.955Z</time>
      </trkpt>
      <trkpt lat="46.35711" lon="6.68286">
        <ele>1028.00258</ele>
        <time>2022-08-01T15:33:25.939Z</time>
      </trkpt>
      <trkpt lat="46.3571" lon="6.68273">
        <ele>1028.00258</ele>
        <time>2022-08-01T15:33:32.913Z</time>
      </trkpt>
      <trkpt lat="46.35707" lon="6.6826">
        <ele>1028.00258</ele>
        <time>2022-08-01T15:33:40.953Z</time>
      </trkpt>
      <trkpt lat="46.35704" lon="6.68247">
        <ele>1028.00258</ele>
        <time>2022-08-01T15:33:48.921Z</time>
      </trkpt>
      <trkpt lat="46.35704" lon="6.68232">
        <ele>1028.00258</ele>
        <time>2022-08-01T15:33:56.937Z</time>
      </trkpt>
      <trkpt lat="46.35702" lon="6.68218">
        <ele>1028.00258</ele>
        <time>2022-08-01T15:34:04.948Z</time>
      </trkpt>
      <trkpt lat="46.357" lon="6.68204">
        <ele>1028.00258</ele>
        <time>2022-08-01T15:34:11.957Z</time>
      </trkpt>
      <trkpt lat="46.35699" lon="6.68191">
        <ele>1028.00258</ele>
        <time>2022-08-01T15:34:19.920Z</time>
      </trkpt>
      <trkpt lat="46.35699" lon="6.68177">
        <ele>1028.00258</ele>
        <time>2022-08-01T15:34:28.938Z</time>
      </trkpt>
      <trkpt lat="46.35699" lon="6.68163">
        <ele>1028.00258</ele>
        <time>2022-08-01T15:34:35.943Z</time>
      </trkpt>
      <trkpt lat="46.35697" lon="6.68148">
        <ele>1028.00258</ele>
        <time>2022-08-01T15:34:51.926Z</time>
      </trkpt>
      <trkpt lat="46.35698" lon="6.68135">
        <ele>1028.00258</ele>
        <time>2022-08-01T15:35:00.950Z</time>
      </trkpt>
      <trkpt lat="46.35696" lon="6.68122">
        <ele>1028.00258</ele>
        <time>2022-08-01T15:35:09.926Z</time>
      </trkpt>
      <trkpt lat="46.35695" lon="6.68109">
        <ele>1028.00258</ele>
        <time>2022-08-01T15:35:18.942Z</time>
      </trkpt>
      <trkpt lat="46.35697" lon="6.68096">
        <ele>1028.00258</ele>
        <time>2022-08-01T15:35:27.954Z</time>
      </trkpt>
      <trkpt lat="46.357" lon="6.68083">
        <ele>1028.00258</ele>
        <time>2022-08-01T15:35:34.962Z</time>
      </trkpt>
      <trkpt lat="46.35705" lon="6.68072">
        <ele>1028.00258</ele>
        <time>2022-08-01T15:35:42.907Z</time>
      </trkpt>
      <trkpt lat="46.35708" lon="6.68068">
        <ele>1028.00258</ele>
        <time>2022-08-01T15:36:05.088Z</time>
      </trkpt>
    </trkseg>
  </trk>
</gpx>